Time;durP1;ratioP1;P1;durP2;ratioP2;P2;SDS_P1;SDS_P2;PMS_P1;PMS_P2;Temp;Humidity;BMP_temperature;BMP_pressure;BME280_temperature;BME280_humidity;BME280_pressure;Samples;Min_cycle;Max_cycle;Signal;HPM_P1;HPM_P2
2021/09/22 00:01:33;;;;;;;22.08;13.90;;;12.50;99.90;;;;;;4898530;29;20084;-78
2021/09/22 00:03:58;;;;;;;23.77;13.85;;;12.50;99.90;;;;;;4897990;29;20455;-79
2021/09/22 00:06:24;;;;;;;21.20;12.60;;;12.50;99.90;;;;;;4882455;29;20493;-81
2021/09/22 00:08:50;;;;;;;16.50;12.70;;;12.50;99.90;;;;;;4882102;29;20051;-79
2021/09/22 00:11:16;;;;;;;21.70;12.05;;;12.50;99.90;;;;;;4898193;29;20147;-78
2021/09/22 00:13:42;;;;;;;18.45;12.05;;;12.40;99.90;;;;;;4897120;29;20064;-78
2021/09/22 00:16:08;;;;;;;19.38;13.05;;;12.40;99.90;;;;;;4899061;29;20100;-79
2021/09/22 00:18:34;;;;;;;24.15;13.15;;;12.50;99.90;;;;;;4901406;29;20043;-80
2021/09/22 00:20:59;;;;;;;21.45;12.43;;;12.40;99.90;;;;;;4886035;29;20419;-81
2021/09/22 00:23:25;;;;;;;23.48;12.43;;;12.40;99.90;;;;;;4901746;29;20181;-81
2021/09/22 00:25:51;;;;;;;22.58;12.55;;;12.30;99.90;;;;;;4900567;29;20071;-79
2021/09/22 00:28:16;;;;;;;19.15;11.95;;;12.40;99.90;;;;;;4882268;29;20052;-79
2021/09/22 00:30:43;;;;;;;24.92;13.43;;;12.30;99.90;;;;;;4882062;29;20048;-79
2021/09/22 00:33:09;;;;;;;21.98;13.57;;;12.30;99.90;;;;;;4882586;29;20447;-79
2021/09/22 00:35:36;;;;;;;25.20;13.68;;;12.30;99.90;;;;;;4892462;29;20076;-79
2021/09/22 00:38:03;;;;;;;29.70;14.27;;;12.30;99.90;;;;;;4900751;29;20091;-79
2021/09/22 00:40:29;;;;;;;23.50;13.13;;;12.40;99.90;;;;;;4885488;29;20040;-77
2021/09/22 00:42:55;;;;;;;26.17;13.80;;;12.40;99.90;;;;;;4901049;29;20075;-81
2021/09/22 00:45:21;;;;;;;23.45;13.60;;;12.40;99.90;;;;;;4884931;29;20060;-79
2021/09/22 00:47:46;;;;;;;20.65;13.52;;;12.30;99.90;;;;;;4885829;29;20076;-80
2021/09/22 00:50:13;;;;;;;18.27;12.70;;;12.30;99.90;;;;;;4885566;29;20584;-81
2021/09/22 00:52:41;;;;;;;20.92;12.48;;;12.30;99.90;;;;;;4885066;29;20511;-79
2021/09/22 00:55:08;;;;;;;18.85;13.10;;;12.20;99.90;;;;;;4885214;29;20514;-78
2021/09/22 00:57:46;;;;;;;20.08;13.20;;;12.20;99.90;;;;;;4884885;29;20044;-81
2021/09/22 01:00:12;;;;;;;18.35;13.10;;;12.20;99.90;;;;;;4885394;29;20387;-82
2021/09/22 01:02:38;;;;;;;25.83;14.45;;;12.20;99.90;;;;;;4900655;29;20047;-82
2021/09/22 01:05:04;;;;;;;24.45;13.73;;;12.10;99.90;;;;;;4900722;29;20040;-80
2021/09/22 01:07:30;;;;;;;26.88;14.40;;;12.10;99.90;;;;;;4900793;29;20043;-81
2021/09/22 01:09:56;;;;;;;21.83;13.45;;;12.10;99.90;;;;;;4884487;29;20107;-79
2021/09/22 01:12:22;;;;;;;19.67;13.30;;;12.10;99.90;;;;;;4881702;29;20489;-81
2021/09/22 01:14:48;;;;;;;19.90;12.73;;;12.10;99.90;;;;;;4881197;29;20112;-81
2021/09/22 01:17:19;;;;;;;20.70;12.80;;;12.10;99.90;;;;;;4881965;29;20164;-82
2021/09/22 01:19:45;;;;;;;21.10;12.50;;;12.10;99.90;;;;;;4897002;29;20044;-79
2021/09/22 01:22:12;;;;;;;16.38;11.15;;;12.10;99.90;;;;;;4881643;29;20052;-79
2021/09/22 01:24:57;;;;;;;19.83;12.02;;;12.00;99.90;;;;;;4897299;29;20044;-80
2021/09/22 01:27:23;;;;;;;16.77;10.35;;;12.00;99.90;;;;;;4884340;29;20080;-79
2021/09/22 01:29:48;;;;;;;20.73;11.45;;;12.00;99.90;;;;;;4862061;29;20087;-80
2021/09/22 01:32:14;;;;;;;14.80;10.70;;;11.90;99.90;;;;;;4863368;29;20044;-81
2021/09/22 01:34:40;;;;;;;20.88;11.52;;;11.90;99.90;;;;;;4865669;29;20037;-81
2021/09/22 01:37:06;;;;;;;21.70;10.38;;;11.90;99.90;;;;;;4897428;29;20127;-79
2021/09/22 01:39:40;;;;;;;14.68;10.05;;;11.90;99.90;;;;;;4881219;29;20051;-78
2021/09/22 01:42:06;;;;;;;14.00;10.05;;;11.90;99.90;;;;;;4896907;29;20485;-79
2021/09/22 01:44:33;;;;;;;16.73;9.98;;;11.90;99.90;;;;;;4896041;29;20099;-80
2021/09/22 01:46:59;;;;;;;16.80;10.70;;;11.80;99.90;;;;;;4897274;29;20044;-78
2021/09/22 01:49:25;;;;;;;20.70;12.50;;;11.80;99.90;;;;;;4896583;29;20094;-81
2021/09/22 01:51:59;;;;;;;19.23;12.00;;;11.80;99.90;;;;;;4881292;29;20139;-80
2021/09/22 01:54:25;;;;;;;22.50;12.25;;;11.80;99.90;;;;;;4896394;29;20180;-79
2021/09/22 01:56:51;;;;;;;18.13;11.13;;;11.80;99.90;;;;;;4896990;29;20044;-81
2021/09/22 01:59:17;;;;;;;16.70;11.02;;;11.80;99.90;;;;;;4880162;29;20072;-81
2021/09/22 02:01:43;;;;;;;16.15;11.32;;;11.80;99.90;;;;;;4881234;29;20037;-81
2021/09/22 02:04:09;;;;;;;15.27;11.00;;;11.90;99.90;;;;;;4896122;29;20051;-79
2021/09/22 02:06:35;;;;;;;15.13;10.63;;;11.80;99.90;;;;;;4896449;29;20068;-79
2021/09/22 02:09:00;;;;;;;16.48;10.27;;;11.80;99.90;;;;;;4881233;29;20044;-78
2021/09/22 02:11:26;;;;;;;14.18;9.70;;;11.80;99.90;;;;;;4897756;29;20183;-81
2021/09/22 02:13:52;;;;;;;17.58;9.40;;;11.70;99.90;;;;;;4895450;29;20409;-80
2021/09/22 02:16:18;;;;;;;13.60;9.32;;;11.70;99.90;;;;;;4896292;29;20084;-79
2021/09/22 02:18:44;;;;;;;13.40;10.05;;;11.80;99.90;;;;;;4896266;29;20147;-79
2021/09/22 02:21:10;;;;;;;15.35;9.35;;;11.70;99.90;;;;;;4896095;29;20047;-78
2021/09/22 02:23:38;;;;;;;13.40;8.82;;;11.60;99.90;;;;;;4880140;29;20044;-78
2021/09/22 02:26:05;;;;;;;12.98;9.13;;;11.60;99.90;;;;;;4878442;29;20052;-80
2021/09/22 02:28:31;;;;;;;12.23;8.50;;;11.60;99.90;;;;;;4877193;29;20090;-79
2021/09/22 02:30:57;;;;;;;12.13;8.13;;;11.50;99.90;;;;;;4876859;29;20500;-81
2021/09/22 02:33:23;;;;;;;12.15;7.50;;;11.50;99.90;;;;;;4877350;29;20140;-78
2021/09/22 02:35:52;;;;;;;11.10;7.00;;;11.40;99.90;;;;;;4904389;29;20080;-80
2021/09/22 02:38:18;;;;;;;10.98;6.78;;;11.50;99.90;;;;;;4896057;29;20051;-80
2021/09/22 02:40:45;;;;;;;7.50;6.20;;;11.40;99.90;;;;;;4879758;29;20500;-79
2021/09/22 02:43:11;;;;;;;10.25;6.00;;;11.30;99.90;;;;;;4895356;29;20044;-81
2021/09/22 02:45:37;;;;;;;8.95;5.75;;;11.30;99.90;;;;;;4895250;29;20051;-81
2021/09/22 02:48:03;;;;;;;7.10;5.90;;;11.20;99.90;;;;;;4895565;29;20048;-78
2021/09/22 02:50:29;;;;;;;9.00;5.93;;;11.20;99.90;;;;;;4889842;29;20505;-81
2021/09/22 02:52:55;;;;;;;6.88;6.13;;;11.20;99.90;;;;;;4861968;29;20254;-80
2021/09/22 02:55:20;;;;;;;7.82;6.38;;;11.10;99.90;;;;;;4877761;29;20060;-80
2021/09/22 02:57:46;;;;;;;39.33;6.70;;;11.10;99.90;;;;;;4876271;29;20045;-80
2021/09/22 03:00:14;;;;;;;8.68;6.18;;;11.10;99.90;;;;;;4874108;29;20052;-78
2021/09/22 03:02:40;;;;;;;8.45;6.75;;;11.00;99.90;;;;;;4876363;29;20176;-78
2021/09/22 03:05:07;;;;;;;58.92;7.68;;;11.00;99.90;;;;;;4860875;29;20083;-80
2021/09/22 03:07:33;;;;;;;77.65;9.48;;;10.90;99.90;;;;;;4876882;29;20374;-79
2021/09/22 03:09:58;;;;;;;10.73;8.95;;;10.80;99.90;;;;;;4861236;29;20056;-78
2021/09/22 03:12:24;;;;;;;14.68;9.75;;;10.90;99.90;;;;;;4879171;29;20048;-80
2021/09/22 03:14:54;;;;;;;12.55;9.52;;;10.80;99.90;;;;;;4878759;29;20396;-80
2021/09/22 03:17:20;;;;;;;10.57;9.50;;;10.90;99.90;;;;;;4879358;29;20052;-80
2021/09/22 03:19:45;;;;;;;10.85;9.40;;;10.90;99.90;;;;;;4896258;29;20446;-80
2021/09/22 03:22:11;;;;;;;12.90;10.98;;;10.90;99.90;;;;;;4879543;29;20040;-81
2021/09/22 03:24:37;;;;;;;11.82;10.63;;;11.00;99.90;;;;;;4879543;29;20056;-79
2021/09/22 03:27:02;;;;;;;16.52;11.23;;;10.90;99.90;;;;;;4889794;29;20052;-80
2021/09/22 03:29:28;;;;;;;10.68;9.43;;;11.10;99.90;;;;;;4897562;29;20122;-78
2021/09/22 03:31:54;;;;;;;11.80;10.55;;;11.20;99.90;;;;;;4882269;29;20127;-80
2021/09/22 03:34:20;;;;;;;11.35;10.18;;;11.30;99.90;;;;;;4897812;29;20150;-79
2021/09/22 03:36:46;;;;;;;11.95;10.27;;;11.20;99.90;;;;;;4898109;29;20064;-81
2021/09/22 03:39:13;;;;;;;11.52;10.43;;;11.20;99.90;;;;;;4897895;29;20407;-80
2021/09/22 03:41:39;;;;;;;12.40;11.13;;;11.30;99.90;;;;;;4898329;29;20425;-80
2021/09/22 03:44:05;;;;;;;11.30;10.20;;;11.40;99.90;;;;;;4882295;29;20095;-80
2021/09/22 03:46:30;;;;;;;12.52;9.25;;;11.20;99.90;;;;;;4897661;29;20092;-81
2021/09/22 03:48:56;;;;;;;12.20;10.27;;;11.30;99.90;;;;;;4882650;29;20107;-81
2021/09/22 03:51:22;;;;;;;11.77;10.57;;;11.40;99.90;;;;;;4883372;29;20056;-79
2021/09/22 03:53:47;;;;;;;12.25;10.95;;;11.40;99.90;;;;;;4902005;29;20048;-81
2021/09/22 03:56:13;;;;;;;11.82;10.48;;;11.40;99.90;;;;;;4886436;29;20059;-80
2021/09/22 03:58:39;;;;;;;13.75;11.25;;;11.40;99.90;;;;;;4885734;29;20114;-79
2021/09/22 04:01:05;;;;;;;12.10;10.90;;;11.40;99.90;;;;;;4901815;29;20040;-80
2021/09/22 04:03:31;;;;;;;12.95;11.60;;;11.30;99.90;;;;;;4901808;29;20042;-81
2021/09/22 04:05:57;;;;;;;13.48;12.13;;;11.30;99.90;;;;;;4901779;29;20079;-78
2021/09/22 04:08:22;;;;;;;14.88;13.27;;;11.30;99.90;;;;;;4901657;29;20109;-80
2021/09/22 04:10:48;;;;;;;13.30;11.90;;;11.30;99.90;;;;;;4917201;29;20126;-82
2021/09/22 04:13:14;;;;;;;15.30;13.65;;;11.40;99.90;;;;;;4901469;29;20067;-79
2021/09/22 04:15:40;;;;;;;15.75;13.07;;;11.40;99.90;;;;;;4900925;29;20044;-80
2021/09/22 04:18:06;;;;;;;15.45;12.95;;;11.50;99.90;;;;;;4901624;29;20051;-79
2021/09/22 04:20:32;;;;;;;14.70;12.85;;;11.50;99.90;;;;;;4901285;29;20039;-80
2021/09/22 04:22:59;;;;;;;14.63;13.13;;;11.40;99.90;;;;;;4885729;29;20047;-80
2021/09/22 04:25:25;;;;;;;17.33;14.20;;;11.50;99.90;;;;;;4885476;29;20143;-78
2021/09/22 04:27:50;;;;;;;14.90;13.40;;;11.40;99.90;;;;;;4885773;29;20135;-78
2021/09/22 04:30:16;;;;;;;18.02;14.68;;;11.40;99.90;;;;;;4865952;29;20505;-81
2021/09/22 04:32:42;;;;;;;15.63;13.43;;;11.50;99.90;;;;;;4882831;29;20131;-80
2021/09/22 04:35:08;;;;;;;15.38;13.07;;;11.50;99.90;;;;;;4873126;29;20044;-79
2021/09/22 04:37:36;;;;;;;18.40;15.30;;;11.40;99.90;;;;;;4885352;29;20437;-81
2021/09/22 04:40:05;;;;;;;18.25;15.30;;;11.40;99.90;;;;;;4901027;29;20046;-81
2021/09/22 04:42:30;;;;;;;17.05;15.23;;;11.40;99.90;;;;;;4885440;29;20082;-79
2021/09/22 04:44:56;;;;;;;15.90;14.10;;;11.50;99.90;;;;;;4917548;29;20408;-77
2021/09/22 04:47:22;;;;;;;21.45;16.40;;;11.40;99.90;;;;;;4885567;29;20143;-79
2021/09/22 04:49:48;;;;;;;17.02;15.02;;;11.50;99.90;;;;;;4885453;29;20050;-80
2021/09/22 04:52:14;;;;;;;18.58;15.10;;;11.50;99.90;;;;;;4917990;29;20433;-80
2021/09/22 04:54:40;;;;;;;17.55;15.75;;;11.50;99.90;;;;;;4900987;29;20099;-79
2021/09/22 04:57:06;;;;;;;24.63;16.58;;;11.50;99.90;;;;;;4885133;29;20044;-80
2021/09/22 04:59:32;;;;;;;15.88;14.18;;;11.50;99.90;;;;;;4900209;29;20083;-82
2021/09/22 05:01:57;;;;;;;18.95;15.32;;;11.40;99.90;;;;;;4899981;29;20079;-77
2021/09/22 05:04:23;;;;;;;16.40;14.68;;;11.50;99.90;;;;;;4885439;29;20044;-80
2021/09/22 05:06:49;;;;;;;17.50;14.73;;;11.40;99.90;;;;;;4917701;29;20535;-81
2021/09/22 05:09:14;;;;;;;17.25;15.38;;;11.40;99.90;;;;;;4916007;29;20119;-80
2021/09/22 05:11:43;;;;;;;19.30;15.70;;;11.40;99.90;;;;;;4900784;29;20103;-81
2021/09/22 05:14:10;;;;;;;18.27;16.20;;;11.40;99.90;;;;;;4896835;29;20064;-80
2021/09/22 05:16:36;;;;;;;22.85;17.63;;;11.40;99.90;;;;;;4877602;29;20469;-80
2021/09/22 05:19:01;;;;;;;20.50;16.70;;;11.50;99.90;;;;;;4877964;29;20037;-81
2021/09/22 05:21:27;;;;;;;25.50;16.55;;;11.50;99.90;;;;;;4862779;29;20370;-81
2021/09/22 05:23:53;;;;;;;22.23;17.45;;;11.60;99.90;;;;;;4878139;29;20120;-81
2021/09/22 05:26:19;;;;;;;22.63;19.20;;;11.50;99.90;;;;;;4878036;29;20381;-81
2021/09/22 05:28:45;;;;;;;24.73;19.33;;;11.50;99.90;;;;;;4893589;29;20045;-79
2021/09/22 05:31:10;;;;;;;23.70;18.95;;;11.50;99.90;;;;;;4879233;29;20037;-81
2021/09/22 05:33:36;;;;;;;24.52;19.40;;;11.60;99.90;;;;;;4878639;29;20085;-79
2021/09/22 05:36:02;;;;;;;24.70;19.90;;;11.60;99.90;;;;;;4876094;29;20048;-80
2021/09/22 05:38:52;;;;;;;29.50;20.35;;;11.60;99.90;;;;;;4881011;29;20361;-79
2021/09/22 05:41:18;;;;;;;29.40;20.85;;;11.60;99.90;;;;;;4896928;29;20401;-79
2021/09/22 05:43:44;;;;;;;27.65;20.75;;;11.60;99.90;;;;;;4896016;29;20060;-78
2021/09/22 05:46:10;;;;;;;28.35;19.75;;;11.60;99.90;;;;;;4881024;29;20139;-79
2021/09/22 05:48:35;;;;;;;23.90;18.88;;;11.70;99.90;;;;;;4898049;29;20056;-81
2021/09/22 05:51:01;;;;;;;25.98;20.00;;;11.70;99.90;;;;;;4896554;29;20048;-82
2021/09/22 05:53:27;;;;;;;26.92;19.65;;;11.80;99.90;;;;;;4896440;29;20136;-81
2021/09/22 05:55:53;;;;;;;30.40;20.05;;;11.80;99.90;;;;;;4896649;29;20086;-80
2021/09/22 05:58:20;;;;;;;27.38;20.17;;;11.90;99.90;;;;;;4880635;29;20084;-79
2021/09/22 06:00:49;;;;;;;26.67;20.42;;;11.90;99.90;;;;;;4880278;29;20135;-79
2021/09/22 06:03:15;;;;;;;28.25;19.88;;;11.90;99.90;;;;;;4896750;29;20040;-82
2021/09/22 06:05:41;;;;;;;26.58;18.77;;;11.90;99.90;;;;;;4896059;29;20088;-80
2021/09/22 06:08:07;;;;;;;28.88;21.05;;;11.90;99.90;;;;;;4896589;29;20044;-79
2021/09/22 06:10:34;;;;;;;26.95;21.00;;;12.00;99.90;;;;;;4896533;29;20050;-82
2021/09/22 06:13:00;;;;;;;29.48;20.00;;;12.10;99.90;;;;;;4896392;29;20057;-81
2021/09/22 06:15:26;;;;;;;31.02;22.13;;;12.10;99.90;;;;;;4910761;29;20070;-82
2021/09/22 06:17:52;;;;;;;32.70;22.63;;;12.20;99.90;;;;;;4896316;29;20401;-79
2021/09/22 06:20:18;;;;;;;33.58;22.63;;;12.20;99.90;;;;;;4896306;29;20041;-78
2021/09/22 06:22:45;;;;;;;30.17;22.15;;;12.20;99.90;;;;;;4896490;29;20048;-81
2021/09/22 06:25:47;;;;;;;29.90;21.60;;;12.20;99.90;;;;;;4895739;29;20081;-79
2021/09/22 06:28:13;;;;;;;29.25;22.00;;;12.30;99.90;;;;;;4895631;29;20100;-80
2021/09/22 06:30:39;;;;;;;36.10;23.75;;;12.20;99.90;;;;;;4879608;29;20040;-80
2021/09/22 06:33:07;;;;;;;34.58;24.00;;;12.40;99.90;;;;;;4895945;29;20382;-78
2021/09/22 06:35:32;;;;;;;35.47;23.83;;;12.30;99.90;;;;;;4895824;29;20048;-80
2021/09/22 06:37:58;;;;;;;32.95;22.77;;;12.30;99.90;;;;;;4895546;29;20096;-80
2021/09/22 06:40:24;;;;;;;34.72;23.73;;;12.30;99.90;;;;;;4895308;29;20120;-78
2021/09/22 06:42:49;;;;;;;32.78;23.23;;;12.40;99.90;;;;;;4896992;29;20073;-81
2021/09/22 06:45:20;;;;;;;33.22;23.08;;;12.50;99.90;;;;;;4896221;29;20362;-81
2021/09/22 06:47:46;;;;;;;40.70;24.38;;;12.50;99.90;;;;;;4895561;29;20052;-81
2021/09/22 06:50:12;;;;;;;34.72;23.73;;;12.60;99.90;;;;;;4896443;29;20433;-81
2021/09/22 06:52:38;;;;;;;36.55;24.98;;;12.70;99.90;;;;;;4896131;29;20095;-80
2021/09/22 06:55:04;;;;;;;36.08;23.95;;;12.70;99.90;;;;;;4896254;29;20089;-79
2021/09/22 06:57:32;;;;;;;36.05;23.10;;;12.80;99.90;;;;;;4895131;29;20044;-80
2021/09/22 06:59:57;;;;;;;31.70;22.42;;;12.80;99.90;;;;;;4879203;29;20492;-79
2021/09/22 07:02:23;;;;;;;33.40;22.98;;;12.90;99.90;;;;;;4895462;29;20045;-80
2021/09/22 07:04:49;;;;;;;35.97;23.25;;;12.90;99.90;;;;;;4895015;29;20043;-80
2021/09/22 07:07:14;;;;;;;32.55;21.70;;;13.00;99.90;;;;;;4895261;29;20048;-79
2021/09/22 07:09:40;;;;;;;33.95;21.88;;;13.10;99.90;;;;;;4894822;29;20380;-82
2021/09/22 07:12:06;;;;;;;38.53;21.45;;;13.20;99.90;;;;;;4895415;29;20044;-80
2021/09/22 07:14:32;;;;;;;32.53;21.40;;;13.30;99.90;;;;;;4881949;29;20214;-78
2021/09/22 07:17:00;;;;;;;34.72;21.27;;;13.50;99.90;;;;;;4914304;29;20054;-79
2021/09/22 07:19:26;;;;;;;34.35;19.92;;;13.40;99.90;;;;;;4898069;29;20047;-80
2021/09/22 07:21:52;;;;;;;32.65;20.80;;;13.50;99.90;;;;;;4898047;29;20398;-81
2021/09/22 07:24:19;;;;;;;32.45;21.13;;;13.60;99.90;;;;;;4897983;29;20086;-81
2021/09/22 07:26:44;;;;;;;31.27;21.45;;;13.60;99.90;;;;;;4897359;29;20083;-83
2021/09/22 07:29:10;;;;;;;36.00;20.70;;;13.70;99.90;;;;;;4882373;29;20055;-80
2021/09/22 07:31:36;;;;;;;31.15;21.17;;;13.70;99.90;;;;;;4886264;29;20052;-79
2021/09/22 07:34:02;;;;;;;33.85;21.33;;;13.80;99.90;;;;;;4898533;29;20043;-81
2021/09/22 07:36:29;;;;;;;33.40;20.40;;;13.90;99.90;;;;;;4897494;29;20055;-82
2021/09/22 07:38:55;;;;;;;31.25;19.88;;;14.00;99.90;;;;;;4897807;29;20131;-79
2021/09/22 07:41:21;;;;;;;29.10;20.48;;;14.00;99.90;;;;;;4882312;29;20119;-81
2021/09/22 07:43:47;;;;;;;33.05;20.38;;;14.10;99.90;;;;;;4897527;29;20050;-78
2021/09/22 07:46:12;;;;;;;33.03;21.15;;;14.10;99.90;;;;;;4881946;29;20041;-78
2021/09/22 07:48:38;;;;;;;34.15;21.60;;;14.10;99.90;;;;;;4897777;29;20174;-82
2021/09/22 07:51:04;;;;;;;34.25;21.92;;;14.10;99.90;;;;;;4913912;29;20400;-80
2021/09/22 07:53:30;;;;;;;30.70;20.98;;;14.00;99.90;;;;;;4882468;29;20466;-81
2021/09/22 07:55:56;;;;;;;34.85;22.77;;;14.10;99.90;;;;;;4882166;29;20152;-81
2021/09/22 07:58:21;;;;;;;32.85;21.85;;;14.10;99.90;;;;;;4914474;29;20063;-80
2021/09/22 08:00:48;;;;;;;37.17;23.65;;;14.20;99.90;;;;;;4897259;29;20048;-80
2021/09/22 08:03:13;;;;;;;37.17;22.83;;;14.20;99.90;;;;;;4897536;29;20041;-78
2021/09/22 08:05:39;;;;;;;40.30;23.45;;;14.30;99.90;;;;;;4882203;29;20060;-80
2021/09/22 08:08:07;;;;;;;33.53;22.05;;;14.40;99.90;;;;;;4914853;29;20396;-79
2021/09/22 08:10:35;;;;;;;41.30;22.60;;;14.40;99.90;;;;;;4881909;29;20149;-81
2021/09/22 08:13:01;;;;;;;36.33;24.10;;;14.50;99.90;;;;;;4897455;29;20135;-79
2021/09/22 08:15:26;;;;;;;36.63;22.88;;;14.60;99.90;;;;;;4894554;29;20493;-81
2021/09/22 08:17:52;;;;;;;36.72;23.08;;;14.70;99.90;;;;;;4863051;29;20091;-79
2021/09/22 08:20:18;;;;;;;41.53;24.67;;;14.80;99.90;;;;;;4879043;29;20091;-82
2021/09/22 08:22:45;;;;;;;38.17;23.23;;;15.00;99.90;;;;;;4894404;29;20549;-81
2021/09/22 08:25:11;;;;;;;41.55;22.95;;;15.10;99.90;;;;;;4893949;29;20499;-79
2021/09/22 08:27:37;;;;;;;40.75;22.25;;;15.10;99.90;;;;;;4894385;29;20131;-80
2021/09/22 08:30:06;;;;;;;37.50;23.83;;;15.20;99.90;;;;;;4877739;29;20143;-79
2021/09/22 08:32:32;;;;;;;37.42;23.45;;;15.20;99.90;;;;;;4878712;29;20143;-79
2021/09/22 08:34:58;;;;;;;37.58;24.50;;;15.20;99.90;;;;;;4868496;29;20059;-79
2021/09/22 08:37:24;;;;;;;42.03;26.50;;;15.30;99.90;;;;;;4898553;29;20412;-80
2021/09/22 08:39:50;;;;;;;44.15;25.30;;;15.40;99.90;;;;;;4885013;29;20067;-80
2021/09/22 08:42:17;;;;;;;36.65;24.42;;;15.40;99.90;;;;;;4901050;29;20040;-81
2021/09/22 08:44:43;;;;;;;39.10;24.70;;;15.50;99.90;;;;;;4900037;29;20036;-81
2021/09/22 08:47:09;;;;;;;37.63;24.75;;;15.70;99.90;;;;;;4901222;29;20345;-82
2021/09/22 08:49:35;;;;;;;40.55;24.13;;;15.70;99.90;;;;;;4885255;29;20040;-79
2021/09/22 08:52:02;;;;;;;40.92;25.55;;;15.70;99.90;;;;;;4885338;29;20040;-81
2021/09/22 08:54:29;;;;;;;41.50;25.13;;;15.80;99.90;;;;;;4900661;29;20044;-81
2021/09/22 08:56:55;;;;;;;44.05;26.70;;;15.70;99.90;;;;;;4916477;29;20040;-79
2021/09/22 08:59:20;;;;;;;45.67;26.45;;;15.90;99.90;;;;;;4900587;29;20168;-81
2021/09/22 09:02:08;;;;;;;46.00;27.25;;;16.00;99.90;;;;;;4900272;29;20477;-80
2021/09/22 09:04:35;;;;;;;40.45;26.20;;;15.90;99.90;;;;;;4900424;29;20048;-80
2021/09/22 09:07:00;;;;;;;43.05;27.17;;;16.00;99.90;;;;;;4900425;29;20457;-82
2021/09/22 09:09:37;;;;;;;41.95;25.55;;;16.10;99.90;;;;;;4917268;29;20115;-78
2021/09/22 09:12:21;;;;;;;45.47;27.80;;;16.20;99.90;;;;;;4900442;29;20532;-81
2021/09/22 09:14:56;;;;;;;41.92;27.20;;;16.20;99.90;;;;;;4899154;29;20059;-78
2021/09/22 09:17:41;;;;;;;43.97;27.05;;;16.10;99.90;;;;;;4883381;29;20041;-78
2021/09/22 09:20:14;;;;;;;46.10;27.50;;;16.20;99.90;;;;;;4865509;29;20600;-78
2021/09/22 09:22:40;;;;;;;43.05;26.98;;;16.30;99.90;;;;;;4866344;29;20408;-79
2021/09/22 09:25:07;;;;;;;41.42;26.73;;;16.50;99.90;;;;;;4881042;29;20132;-81
2021/09/22 09:27:35;;;;;;;46.08;27.17;;;16.60;99.90;;;;;;4865957;29;20044;-78
2021/09/22 09:30:16;;;;;;;46.67;28.33;;;16.60;99.90;;;;;;4865090;29;20057;-81
2021/09/22 09:32:42;;;;;;;43.40;26.20;;;16.70;99.90;;;;;;4866282;29;20434;-78
2021/09/22 09:35:14;;;;;;;41.72;25.88;;;16.70;99.90;;;;;;4871735;29;20048;-78
2021/09/22 09:37:45;;;;;;;48.78;28.65;;;16.80;99.90;;;;;;4916916;29;20048;-80
2021/09/22 09:40:21;;;;;;;41.70;25.95;;;17.00;99.90;;;;;;4877535;29;20044;-79
2021/09/22 09:42:50;;;;;;;48.85;27.67;;;17.00;99.90;;;;;;4896833;29;20080;-80
2021/09/22 09:45:19;;;;;;;47.40;29.42;;;17.00;99.90;;;;;;4880633;29;20075;-81
2021/09/22 09:48:02;;;;;;;44.72;27.52;;;17.00;99.90;;;;;;4898199;29;20080;-80
2021/09/22 09:50:29;;;;;;;42.72;26.95;;;17.30;99.90;;;;;;4864887;29;20464;-80
2021/09/22 09:52:57;;;;;;;45.22;27.30;;;17.40;99.90;;;;;;4881217;29;20143;-78
2021/09/22 09:55:25;;;;;;;45.70;27.20;;;17.50;99.90;;;;;;4865088;29;20131;-81
2021/09/22 09:57:53;;;;;;;45.50;28.58;;;17.60;99.90;;;;;;4865738;29;20055;-79
2021/09/22 10:00:43;;;;;;;39.47;26.35;;;17.90;99.90;;;;;;4864564;29;20488;-80
2021/09/22 10:03:12;;;;;;;41.25;25.20;;;18.00;99.90;;;;;;4865438;29;20098;-79
2021/09/22 10:05:38;;;;;;;41.88;25.33;;;18.00;99.90;;;;;;4880917;29;20108;-80
2021/09/22 10:08:04;;;;;;;44.08;26.45;;;18.00;99.90;;;;;;4898062;29;20124;-78
2021/09/22 10:10:30;;;;;;;45.05;27.77;;;18.00;99.90;;;;;;4881268;29;20416;-80
2021/09/22 10:12:57;;;;;;;41.28;27.13;;;18.30;99.90;;;;;;4865192;29;20234;-79
2021/09/22 10:15:23;;;;;;;38.08;24.75;;;18.20;99.90;;;;;;4879565;29;20049;-81
2021/09/22 10:17:50;;;;;;;40.72;25.50;;;18.40;99.90;;;;;;4880723;29;20049;-81
2021/09/22 10:20:17;;;;;;;41.75;25.13;;;18.70;99.90;;;;;;4880375;29;20080;-79
2021/09/22 10:22:43;;;;;;;40.35;25.63;;;18.80;99.90;;;;;;4880456;29;20049;-79
2021/09/22 10:25:09;;;;;;;40.92;24.33;;;18.70;99.90;;;;;;4880253;29;20044;-81
2021/09/22 10:27:36;;;;;;;38.28;23.88;;;18.60;99.90;;;;;;4880461;29;20504;-79
2021/09/22 10:30:07;;;;;;;37.50;22.60;;;18.60;99.90;;;;;;4879294;29;20052;-82
2021/09/22 10:32:41;;;;;;;34.25;21.40;;;18.70;99.90;;;;;;4896276;29;20115;-79
2021/09/22 10:35:25;;;;;;;;;;;18.90;99.90;;;;;;4886771;29;20078;-79
2021/09/22 10:37:52;;;;;;;36.83;21.67;;;19.20;99.90;;;;;;4883408;29;19970;-79
2021/09/22 10:40:20;;;;;;;28.23;18.55;;;19.70;99.90;;;;;;4883250;29;20047;-79
2021/09/22 10:42:45;;;;;;;29.45;19.15;;;19.80;99.90;;;;;;4898856;29;20036;-80
2021/09/22 10:45:17;;;;;;;32.10;19.35;;;19.80;99.90;;;;;;4897759;29;20111;-79
2021/09/22 10:47:45;;;;;;;33.95;19.63;;;19.70;99.90;;;;;;4898893;29;20043;-79
2021/09/22 10:50:33;;;;;;;29.83;19.13;;;19.80;99.90;;;;;;4898600;29;20079;-78
2021/09/22 10:52:58;;;;;;;31.73;20.98;;;19.90;99.90;;;;;;4882838;29;20131;-79
2021/09/22 10:56:22;;;;;;;33.38;18.65;;;20.10;99.90;;;;;;4898226;29;20135;-78
2021/09/22 10:58:55;;;;;;;31.02;18.30;;;20.20;99.90;;;;;;4859801;29;20057;-80
2021/09/22 11:01:32;;;;;;;31.05;19.02;;;20.40;99.90;;;;;;4844670;29;20152;-79
2021/09/22 11:04:02;;;;;;;28.48;17.67;;;20.60;99.90;;;;;;4859688;29;20544;-79
2021/09/22 11:06:48;;;;;;;31.10;17.42;;;20.80;99.90;;;;;;4859980;29;20048;-78
2021/09/22 11:09:25;;;;;;;29.45;18.25;;;21.00;99.90;;;;;;4859867;29;20052;-81
2021/09/22 11:11:58;;;;;;;27.45;16.83;;;20.90;99.90;;;;;;4860012;29;20152;-78
2021/09/22 11:14:46;;;;;;;19.90;14.02;;;21.10;99.90;;;;;;4859239;29;20061;-82
2021/09/22 11:17:22;;;;;;;21.98;13.15;;;21.30;99.90;;;;;;4844677;29;20056;-80
2021/09/22 11:19:59;;;;;;;18.02;12.25;;;21.20;99.90;;;;;;4856836;29;20465;-81
2021/09/22 11:22:30;;;;;;;23.02;13.43;;;20.90;99.90;;;;;;4841851;29;20053;-79
2021/09/22 11:25:07;;;;;;;20.60;13.00;;;20.80;99.90;;;;;;4841234;29;20045;-80
2021/09/22 11:27:34;;;;;;;26.23;11.77;;;20.60;99.90;;;;;;4841539;29;20053;-81
2021/09/22 11:30:03;;;;;;;17.23;9.38;;;20.70;99.90;;;;;;4879348;29;20132;-79
2021/09/22 11:32:41;;;;;;;17.20;8.25;;;20.50;99.90;;;;;;4898112;29;20101;-80
2021/09/22 11:35:12;;;;;;;16.45;8.35;;;20.50;99.90;;;;;;4897950;29;20115;-79
2021/09/22 11:37:45;;;;;;;16.02;8.23;;;20.50;99.90;;;;;;4882419;29;20131;-79
2021/09/22 11:40:14;;;;;;;14.50;7.22;;;20.80;99.90;;;;;;4882117;29;20051;-80
2021/09/22 11:42:51;;;;;;;19.02;8.10;;;21.20;99.90;;;;;;4897914;29;20239;-79
2021/09/22 11:45:22;;;;;;;13.27;6.80;;;21.30;99.90;;;;;;4881158;29;20052;-80
2021/09/22 11:47:47;;;;;;;14.45;6.45;;;21.40;99.90;;;;;;4897957;29;20118;-78
2021/09/22 11:50:35;;;;;;;12.10;6.30;;;21.90;99.90;;;;;;4881724;29;20488;-80
2021/09/22 11:53:02;;;;;;;15.32;5.45;;;21.90;99.90;;;;;;4898055;29;20143;-81
2021/09/22 11:55:28;;;;;;;12.75;5.88;;;21.90;99.90;;;;;;4896989;29;20048;-79
2021/09/22 11:57:55;;;;;;;12.43;5.40;;;22.00;99.90;;;;;;4881771;29;20076;-78
2021/09/22 12:00:23;;;;;;;11.60;5.45;;;22.00;99.90;;;;;;4896466;29;20072;-81
2021/09/22 12:02:48;;;;;;;15.88;5.75;;;22.20;99.90;;;;;;4897443;29;20040;-79
2021/09/22 12:05:20;;;;;;;13.27;5.68;;;22.30;99.90;;;;;;4897028;29;20600;-80
2021/09/22 12:07:51;;;;;;;11.65;5.75;;;22.10;99.90;;;;;;4881833;29;20050;-78
2021/09/22 12:10:17;;;;;;;10.02;4.60;;;22.20;99.90;;;;;;4897083;29;20044;-81
2021/09/22 12:12:42;;;;;;;13.70;5.22;;;22.40;99.90;;;;;;4899075;29;20123;-79
2021/09/22 12:15:10;;;;;;;12.10;5.07;;;22.50;99.90;;;;;;4899966;29;20479;-80
2021/09/22 12:17:40;;;;;;;11.50;5.07;;;22.70;99.90;;;;;;4901010;29;20048;-78
2021/09/22 12:20:15;;;;;;;14.30;5.80;;;22.90;99.90;;;;;;4901026;29;20397;-80
2021/09/22 12:22:43;;;;;;;12.98;4.45;;;23.00;99.90;;;;;;4885392;29;20043;-79
2021/09/22 12:25:13;;;;;;;10.88;3.80;;;22.70;99.90;;;;;;4885038;29;20040;-80
2021/09/22 12:27:47;;;;;;;11.23;4.75;;;22.90;99.90;;;;;;4885640;29;20055;-80
2021/09/22 12:30:12;;;;;;;11.10;4.60;;;22.90;99.90;;;;;;4899902;29;20141;-79
2021/09/22 12:32:56;;;;;;;13.10;5.65;;;22.90;99.90;;;;;;4901052;29;20143;-81